Providence Village's Hourly Summary for Sunday, May 13, 2018
Hour Temp
(f)
RH
(%)
Solar Rad.
(MJ/m2)
Rainfall
(in)
Wind
(mph)
5/13/2018 12:00 AM 80 59 0 0 5.05
5/13/2018 1:00 AM 79 64 0 0 6.05
5/13/2018 2:00 AM 78 70 0 0 6.29
5/13/2018 3:00 AM 77 75 0 0 7.52
5/13/2018 4:00 AM 76 78 0 0 7.59
5/13/2018 5:00 AM 75 82 0 0 7.12
5/13/2018 6:00 AM 74 83 0 0 6.77
5/13/2018 7:00 AM 73 86 0.03 0 7.66
5/13/2018 8:00 AM 73 83 0.38 0 7.07
5/13/2018 9:00 AM 75 78 0.76 0 7.06
5/13/2018 10:00 AM 77 68 1.54 0 7.26
5/13/2018 11:00 AM 79 63 2.12 0 7.48
5/13/2018 12:00 PM 81 61 2.85 0 8.08
5/13/2018 1:00 PM 83 53 3.2 0 7.9
5/13/2018 2:00 PM 85 50 2.94 0 8.24
5/13/2018 3:00 PM 86 45 3.2 0 8.43
5/13/2018 4:00 PM 87 45 2.94 0 8.6
5/13/2018 5:00 PM 88 45 2.41 0 8.26
5/13/2018 6:00 PM 87 45 1.71 0 7.89
5/13/2018 7:00 PM 87 46 1.08 0 6.84
5/13/2018 8:00 PM 85 48 0.38 0 5.68
5/13/2018 9:00 PM 83 55 0.01 0 5.55
5/13/2018 10:00 PM 82 56 0 0 5.63
5/13/2018 11:00 PM 81 60 0 0 4.86
Data Summary 80 62 25.55 0.00 7.04